createdAt,value
2018-04-24T06:37:34.953Z,85
2018-04-24T06:38:24.953Z,17.2
2018-04-24T06:39:15.011Z,17.3
2018-04-24T06:40:04.517Z,17.6
2018-04-24T06:40:54.861Z,17.6
2018-04-24T06:41:45.218Z,17.8
2018-04-24T06:42:35.011Z,17.8
2018-04-24T06:43:25.334Z,17.9
2018-04-24T06:44:15.408Z,18
2018-04-24T06:45:04.925Z,18.1
2018-04-24T06:45:55.257Z,17.8
2018-04-24T06:46:45.327Z,17.9
2018-04-24T06:47:35.672Z,18
2018-04-24T06:48:25.543Z,17.9
2018-04-24T06:49:15.782Z,17.9
2018-04-24T06:50:05.306Z,17.8
2018-04-24T06:50:55.907Z,17.7
2018-04-24T06:51:45.728Z,17.7
2018-04-24T06:52:36.114Z,17.8
2018-04-24T06:53:25.892Z,17.9
2018-04-24T06:54:15.882Z,18.2
2018-04-24T06:55:06.002Z,18
2018-04-24T06:55:56.039Z,17.9
2018-04-24T06:56:45.821Z,18.1
2018-04-24T06:57:35.659Z,18.2
2018-04-24T06:58:26.518Z,18.6
2018-04-24T06:59:16.561Z,18.4
2018-04-24T07:00:06.337Z,18.5
2018-04-24T07:00:56.920Z,18.8
2018-04-24T07:01:46.735Z,18.8
2018-04-24T07:02:36.818Z,18.8
2018-04-24T07:03:26.963Z,18.6
2018-04-24T07:04:16.961Z,18.5
2018-04-24T07:05:07.003Z,18.6
2018-04-24T07:05:57.072Z,18.8
2018-04-24T07:06:46.879Z,19.1
2018-04-24T07:07:36.979Z,19.1
2018-04-24T07:08:27.264Z,19.1
2018-04-24T07:09:17.339Z,19.1
2018-04-24T07:10:07.398Z,19.3
2018-04-24T07:10:56.965Z,19.4
2018-04-24T07:11:47.253Z,19.3
2018-04-24T07:12:37.328Z,19.4
2018-04-24T07:13:27.668Z,19.6
2018-04-24T07:14:17.733Z,19.7
2018-04-24T07:15:07.783Z,19.6
2018-04-24T07:15:57.570Z,19.5
2018-04-24T07:16:47.291Z,19.6
2018-04-24T07:17:37.708Z,19.6
2018-04-24T07:18:28.078Z,19.7
2018-04-24T07:19:17.545Z,20
2018-04-24T07:20:07.905Z,20.3
2018-04-24T07:20:58.264Z,20.3
2018-04-24T07:21:48.026Z,20.1
2018-04-24T07:22:38.377Z,19.7
2018-04-24T07:23:28.175Z,19.1
2018-04-24T07:24:18.221Z,19.5
2018-04-24T07:25:08.292Z,19.7
2018-04-24T07:25:58.632Z,19.8
2018-04-24T07:26:48.404Z,19.7
2018-04-24T07:27:37.912Z,19.7
2018-04-24T07:28:28.575Z,19.9
2018-04-24T07:29:18.610Z,20.2
2018-04-24T07:30:08.965Z,20.4
2018-04-24T07:30:59.033Z,20.6
2018-04-24T07:31:49.143Z,20.8
2018-04-24T07:32:38.871Z,21.1
2018-04-24T07:33:28.369Z,20.9
2018-04-24T07:34:19.283Z,20.8
2018-04-24T07:35:08.804Z,20.4
2018-04-24T07:35:59.123Z,20.4
2018-04-24T07:36:49.204Z,20.6
2018-04-24T07:37:39.605Z,20.3
2018-04-24T07:38:29.733Z,20.3
2018-04-24T07:39:19.425Z,20.4
2018-04-24T07:40:09.433Z,20.3
2018-04-24T07:40:59.653Z,20.5
2018-04-24T07:41:49.602Z,20.6
2018-04-24T07:42:39.933Z,20.6
2018-04-24T07:43:29.701Z,20.6
2018-04-24T07:44:20.079Z,20.8
2018-04-24T07:45:09.821Z,20.8
2018-04-24T07:45:59.911Z,20.4
2018-04-24T07:46:50.560Z,20.9
2018-04-24T07:47:40.051Z,21.1
2018-04-24T07:49:20.443Z,20.8
2018-04-24T07:50:10.237Z,21.2
2018-04-24T07:51:00.596Z,21.7
2018-04-24T07:51:50.628Z,21.9
2018-04-24T07:52:40.699Z,22.1
2018-04-24T07:53:30.767Z,22.6
2018-04-24T07:54:20.277Z,22.4
2018-04-24T07:55:10.635Z,22.4
2018-04-24T07:56:00.484Z,22.4
2018-04-24T07:56:51.053Z,22.5
2018-04-24T07:57:41.116Z,22.6
2018-04-24T07:58:31.232Z,22.9
2018-04-24T07:59:21.501Z,23.1
2018-04-24T08:00:11.305Z,23.1
2018-04-24T08:01:01.376Z,23.5
2018-04-24T08:01:51.455Z,23.3
2018-04-24T08:02:41.035Z,23.3
2018-04-24T08:03:31.103Z,23.4
2018-04-24T08:04:21.358Z,23.3
2018-04-24T08:05:11.401Z,23.4
2018-04-24T08:06:01.781Z,23.6
2018-04-24T08:06:51.815Z,23.5
2018-04-24T08:07:41.905Z,23.9
2018-04-24T08:08:31.673Z,23.7
2018-04-24T08:09:22.011Z,23.9
2018-04-24T08:10:11.793Z,24.1
2018-04-24T08:11:01.885Z,24.1
2018-04-24T08:11:51.367Z,24
2018-04-24T08:12:42.270Z,24.2
2018-04-24T08:13:32.066Z,24.1
2018-04-24T08:14:22.400Z,24.1
2018-04-24T08:15:12.188Z,23.8
2018-04-24T08:16:02.250Z,23.4
2018-04-24T08:16:52.592Z,23.6
2018-04-24T08:17:42.673Z,23.9
2018-04-24T08:18:32.715Z,24.4
2018-04-24T08:19:22.789Z,24.4
2018-04-24T08:20:12.843Z,23.9
2018-04-24T08:21:02.917Z,23.4
2018-04-24T08:21:52.725Z,23.7
2018-04-24T08:22:42.779Z,23.7
2018-04-24T08:23:33.101Z,23.7
2018-04-24T08:24:22.614Z,24
2018-04-24T08:25:12.988Z,24.4
2018-04-24T08:26:03.044Z,24.5
2018-04-24T08:26:53.402Z,24.7
2018-04-24T08:27:43.501Z,24.9
2018-04-24T08:28:33.045Z,24.3
2018-04-24T08:29:23.289Z,24.3
2018-04-24T08:30:13.660Z,24.2
2018-04-24T08:31:03.763Z,24.3
2018-04-24T08:31:53.778Z,24.8
2018-04-24T08:32:43.832Z,24.8
2018-04-24T08:33:33.397Z,25.1
2018-04-24T08:34:24.045Z,24.9
2018-04-24T08:35:14.032Z,24.5
2018-04-24T08:36:04.098Z,24.9
2018-04-24T08:36:54.161Z,24.5
2018-04-24T08:37:44.270Z,24.9
2018-04-24T08:38:34.029Z,24.8
2018-04-24T08:39:24.356Z,25
2018-04-24T08:40:14.137Z,25.3
2018-04-24T08:41:04.494Z,25.4
2018-04-24T08:41:54.772Z,25.7
2018-04-24T08:42:44.637Z,25.6
2018-04-24T08:43:34.767Z,24.9
2018-04-24T08:44:24.834Z,25.3
2018-04-24T08:45:14.846Z,25.6
2018-04-24T08:46:04.913Z,25.9
2018-04-24T08:46:54.947Z,25.6
2018-04-24T08:47:45.005Z,25.7
2018-04-24T08:48:35.090Z,25.8
2018-04-24T08:49:25.222Z,25.9
2018-04-24T08:50:15.209Z,26
2018-04-24T08:51:05.286Z,26.1
2018-04-24T08:51:55.051Z,26.1
2018-04-24T08:52:45.406Z,26.3
2018-04-24T08:53:35.470Z,26.2
2018-04-24T08:54:25.565Z,25.8
2018-04-24T08:55:15.689Z,25.9
2018-04-24T08:56:05.410Z,25.8
2018-04-24T08:56:55.730Z,25.9
2018-04-24T08:57:45.524Z,26.2
2018-04-24T08:58:35.853Z,26.3
2018-04-24T08:59:25.955Z,25.9
2018-04-24T09:00:15.997Z,25.1
2018-04-24T09:01:05.782Z,25.1
2018-04-24T09:01:56.026Z,25.3
2018-04-24T09:02:46.216Z,25.4
2018-04-24T09:03:35.991Z,25.4
2018-04-24T09:04:26.332Z,25.3
2018-04-24T09:05:16.102Z,25.5
2018-04-24T09:06:06.551Z,25.8
2018-04-24T09:06:56.521Z,25.9
2018-04-24T09:07:46.297Z,26
2018-04-24T09:08:36.989Z,26.4
2018-04-24T09:09:26.717Z,26.3
2018-04-24T09:10:16.790Z,26.1
2018-04-24T09:11:06.876Z,26.2
2018-04-24T09:11:56.921Z,26.3
2018-04-24T09:12:47.066Z,26.4
2018-04-24T09:13:37.071Z,26.8
2018-04-24T09:14:26.844Z,27
2018-04-24T09:15:17.177Z,27.1
2018-04-24T09:16:06.968Z,26.8
2018-04-24T09:16:57.306Z,26.9
2018-04-24T09:17:47.382Z,25.9
2018-04-24T09:18:37.169Z,26.3
2018-04-24T09:19:27.574Z,26.1
2018-04-24T09:20:17.005Z,25.8
2018-04-24T09:21:07.646Z,26.1
2018-04-24T09:21:57.155Z,26.4
2018-04-24T09:22:47.506Z,25.9
2018-04-24T09:23:37.550Z,25.9
2018-04-24T09:24:27.609Z,26.1
2018-04-24T09:25:17.694Z,26
2018-04-24T09:26:08.039Z,26.2
2018-04-24T09:26:58.472Z,26.1
2018-04-24T09:27:48.181Z,26.1
2018-04-24T09:28:37.956Z,26.9
2018-04-24T09:29:28.304Z,26.3
2018-04-24T09:30:18.099Z,26.7
2018-04-24T09:31:08.156Z,27.1
2018-04-24T09:31:58.498Z,26.7
2018-04-24T09:32:48.270Z,26.6
2018-04-24T09:33:39.458Z,26.4
2018-04-24T09:34:28.687Z,26.1
2018-04-24T09:35:18.749Z,26.6
2018-04-24T09:36:08.844Z,26.7
2018-04-24T09:36:58.885Z,27.4
2018-04-24T09:37:48.965Z,28.2
2018-04-24T09:38:38.823Z,28.2
2018-04-24T09:39:29.100Z,27.8
2018-04-24T09:40:18.849Z,27.9
2018-04-24T09:41:09.213Z,27.9
2018-04-24T09:41:59.011Z,28.4
2018-04-24T09:42:49.434Z,27.9
2018-04-24T09:43:39.413Z,27.5
2018-04-24T09:44:29.221Z,27.6
2018-04-24T09:45:19.547Z,28.3
2018-04-24T09:46:09.608Z,28.1
2018-04-24T09:46:59.665Z,28
2018-04-24T09:47:49.478Z,28.4
2018-04-24T09:48:39.803Z,28.4
2018-04-24T09:49:29.567Z,28.4
2018-04-24T09:50:19.964Z,28.4
2018-04-24T09:51:09.723Z,28.1
2018-04-24T09:52:00.067Z,28
2018-04-24T09:52:50.140Z,27.2
2018-04-24T09:53:39.629Z,27.4
2018-04-24T09:54:29.715Z,27.2
2018-04-24T09:55:20.362Z,27.2
2018-04-24T09:56:10.110Z,27.4
2018-04-24T09:57:00.464Z,28.3
2018-04-24T09:57:50.535Z,28.3
2018-04-24T09:58:54.968Z,28.3
2018-04-24T09:59:30.440Z,28.7
2018-04-24T10:00:20.755Z,28.9
2018-04-24T10:01:10.805Z,28.4
2018-04-24T10:02:00.854Z,28.5
2018-04-24T10:02:50.910Z,29
2018-04-24T10:03:40.978Z,29.4
2018-04-24T10:04:31.063Z,29.6
2018-04-24T10:05:20.854Z,29.6
2018-04-24T10:06:10.915Z,29.6
2018-04-24T10:07:00.960Z,29.9
2018-04-24T10:07:51.766Z,30.4
2018-04-24T10:08:40.820Z,30.3
2018-04-24T10:09:31.178Z,29.8
2018-04-24T10:10:21.502Z,29.7
2018-04-24T10:11:11.035Z,29.4
2018-04-24T10:12:01.089Z,29.6
2018-04-24T10:12:51.460Z,29.8
2018-04-24T10:13:42.283Z,29.8
2018-04-24T10:14:31.852Z,29.1
2018-04-24T10:15:21.902Z,29.1
2018-04-24T10:16:11.964Z,29.7
2018-04-24T10:17:02.048Z,29.9
2018-04-24T10:17:51.552Z,30.4
2018-04-24T10:18:42.152Z,30.3
2018-04-24T10:19:32.002Z,30.3
2018-04-24T10:20:22.314Z,30.4
2018-04-24T10:21:12.369Z,30.6
2018-04-24T10:22:02.441Z,30.7
2018-04-24T10:22:52.220Z,31.1
2018-04-24T10:23:42.576Z,30
2018-04-24T10:24:32.622Z,29.3
2018-04-24T10:25:22.413Z,29.2
2018-04-24T10:26:12.757Z,29.6
2018-04-24T10:27:02.561Z,29.9
2018-04-24T10:27:52.631Z,30.1
2018-04-24T10:28:42.696Z,29.7
2018-04-24T10:29:32.483Z,29.9
2018-04-24T10:30:22.822Z,30.4
2018-04-24T10:31:13.154Z,30.1
2018-04-24T10:32:03.246Z,30.4
2018-04-24T10:32:53.354Z,30.7
2018-04-24T10:33:43.378Z,31.1
2018-04-24T10:34:32.877Z,31.1
2018-04-24T10:35:23.490Z,31.1
2018-04-24T10:36:12.703Z,30.7
2018-04-24T10:37:03.621Z,30.3
2018-04-24T10:37:53.695Z,30
2018-04-24T10:38:43.189Z,29.8
2018-04-24T10:39:33.551Z,30.3
2018-04-24T10:40:23.043Z,30.3
2018-04-24T10:41:13.964Z,30.1
2018-04-24T10:42:04.116Z,30.2
2018-04-24T10:42:53.533Z,30.4
2018-04-24T10:43:44.288Z,30.6
2018-04-24T10:44:34.222Z,31.1
2018-04-24T10:45:24.270Z,31.7
2018-04-24T10:46:14.364Z,31.4
2018-04-24T10:47:04.156Z,31.8
2018-04-24T10:47:54.222Z,32.1
2018-04-24T10:48:44.562Z,31.8
2018-04-24T10:49:34.354Z,31.3
2018-04-24T10:50:24.241Z,31.1
2018-04-24T10:51:14.474Z,31
2018-04-24T10:52:04.815Z,31.1
2018-04-24T10:52:54.884Z,30.2
2018-04-24T10:53:44.663Z,29.9
2018-04-24T10:54:34.747Z,30.5
2018-04-24T10:55:25.093Z,30.6
2018-04-24T10:56:15.156Z,31.1
2018-04-24T10:57:04.916Z,29.9
2018-04-24T10:57:55.302Z,29.3
2018-04-24T10:58:45.396Z,29.5
2018-04-24T10:59:35.399Z,29.3
2018-04-24T11:00:25.181Z,29.7
2018-04-24T11:01:15.536Z,30.1
2018-04-24T11:02:05.608Z,30.6
2018-04-24T11:02:55.654Z,31.2
2018-04-24T11:03:45.731Z,31.6
2018-04-24T11:04:35.506Z,31.8
2018-04-24T11:05:25.853Z,32.1
2018-04-24T11:06:15.941Z,31.4
2018-04-24T11:07:06.011Z,31.3
2018-04-24T11:07:56.057Z,31.3
2018-04-24T11:08:45.870Z,31.1
2018-04-24T11:09:36.221Z,30.5
2018-04-24T11:10:25.707Z,30.8
2018-04-24T11:11:16.359Z,31.4
2018-04-24T11:12:06.406Z,31.7
2018-04-24T11:12:56.201Z,31.1
2018-04-24T11:13:46.512Z,31.6
2018-04-24T11:14:36.619Z,31.9
2018-04-24T11:15:26.666Z,31.9
2018-04-24T11:16:16.719Z,31.9
2018-04-24T11:17:07.090Z,31.6
2018-04-24T11:17:56.867Z,31.9
2018-04-24T11:18:46.923Z,31.9
2018-04-24T11:19:36.992Z,32.3
2018-04-24T11:20:27.052Z,32.3
2018-04-24T11:21:16.910Z,32.3
2018-04-24T11:22:07.197Z,32.4
2018-04-24T11:22:57.240Z,32.8
2018-04-24T11:23:47.322Z,33.2
2018-04-24T11:24:37.119Z,33.2
2018-04-24T11:25:27.441Z,33.1
2018-04-24T11:26:17.221Z,33.3
2018-04-24T11:27:07.384Z,33.2
2018-04-24T11:27:57.666Z,32
2018-04-24T11:28:47.429Z,30.3
2018-04-24T11:29:37.522Z,29.7
2018-04-24T11:30:27.675Z,29.8
2018-04-24T11:31:17.357Z,30.5
2018-04-24T11:32:07.996Z,29.9
2018-04-24T11:32:57.772Z,30.4
2018-04-24T11:33:48.114Z,29.5
2018-04-24T11:34:38.192Z,29.2
2018-04-24T11:35:27.691Z,29.3
2018-04-24T11:36:17.759Z,29.2
2018-04-24T11:37:08.371Z,29
2018-04-24T11:37:58.165Z,29.1
2018-04-24T11:38:48.247Z,30.1
2018-04-24T11:39:38.592Z,30.1
2018-04-24T11:40:28.655Z,30.1
2018-04-24T11:41:18.950Z,29.9
2018-04-24T11:42:08.788Z,30.5
2018-04-24T11:42:58.854Z,31.1
2018-04-24T11:43:48.983Z,31.5
2018-04-24T11:44:38.994Z,31.3
2018-04-24T11:45:29.112Z,30.9
2018-04-24T11:46:18.564Z,30.2
2018-04-24T11:47:09.164Z,29.6
2018-04-24T11:47:58.766Z,28.9
2018-04-24T11:48:49.300Z,28.6
2018-04-24T11:49:39.338Z,28.7
2018-04-24T11:50:29.173Z,29.1
2018-04-24T11:51:19.530Z,30
2018-04-24T11:52:09.651Z,30.3
2018-04-24T11:52:59.373Z,31.2
2018-04-24T11:53:49.697Z,31.9
2018-04-24T11:54:39.767Z,32.4
2018-04-24T11:55:29.845Z,32.6
2018-04-24T11:56:19.917Z,32.3
2018-04-24T11:57:10.468Z,32.5
2018-04-24T11:58:00.044Z,32.7
2018-04-24T11:58:50.104Z,32.6
2018-04-24T11:59:40.155Z,32.6
2018-04-24T12:00:30.240Z,32.8
2018-04-24T12:01:20.300Z,32.6
2018-04-24T12:02:10.361Z,32.4
2018-04-24T12:02:59.878Z,32.2
2018-04-24T12:03:50.492Z,32.4
2018-04-24T12:04:40.554Z,32
2018-04-24T12:05:30.644Z,31.7
2018-04-24T12:06:20.784Z,30.9
2018-04-24T12:07:10.864Z,31
2018-04-24T12:08:00.828Z,31.1
2018-04-24T12:08:50.889Z,31.2
2018-04-24T12:09:40.688Z,31.6
2018-04-24T12:10:30.766Z,31.6
2018-04-24T12:11:21.106Z,31.3
2018-04-24T12:12:11.155Z,31.1
2018-04-24T12:13:01.243Z,30.7
2018-04-24T12:13:51.291Z,30.1
2018-04-24T12:14:41.370Z,29.5
2018-04-24T12:15:31.429Z,29.8
2018-04-24T12:16:20.940Z,29.9
2018-04-24T12:17:11.593Z,30.6
2018-04-24T12:18:01.075Z,30.6
2018-04-24T12:18:51.403Z,30.9
2018-04-24T12:19:41.849Z,30.6
2018-04-24T12:20:31.859Z,30.8
2018-04-24T12:21:21.618Z,30.7
2018-04-24T12:22:11.975Z,31
2018-04-24T12:23:01.836Z,31.8
2018-04-24T12:23:51.801Z,32.5
2018-04-24T12:24:41.907Z,32.7
2018-04-24T12:25:31.956Z,32.1
2018-04-24T12:26:22.303Z,32.6
2018-04-24T12:27:12.071Z,33.1
2018-04-24T12:28:02.165Z,33.3
2018-04-24T12:28:52.510Z,33.3
2018-04-24T12:29:41.801Z,32.6
2018-04-24T12:30:32.661Z,32.1
2018-04-24T12:31:22.678Z,32.3
2018-04-24T12:32:12.479Z,32.4
2018-04-24T12:33:02.276Z,32.1
2018-04-24T12:33:52.894Z,31.6
2018-04-24T12:34:42.951Z,30.8
2018-04-24T12:35:32.468Z,31.7
2018-04-24T12:36:22.591Z,32.4
2018-04-24T12:37:13.140Z,32.6
2018-04-24T12:38:03.022Z,32.4
2018-04-24T12:38:53.653Z,32.4
2018-04-24T12:39:43.363Z,32.9
2018-04-24T12:40:33.152Z,33.1
2018-04-24T12:41:23.493Z,32.7
2018-04-24T12:42:13.537Z,32.4
2018-04-24T12:43:03.609Z,32.9
2018-04-24T12:43:53.404Z,33.3
2018-04-24T12:44:43.165Z,33.4
2018-04-24T12:45:33.812Z,33.2
2018-04-24T12:46:23.859Z,32.6
2018-04-24T12:47:13.924Z,31.8
2018-04-24T12:48:04.002Z,31.6
2018-04-24T12:48:53.528Z,32.1
2018-04-24T12:49:43.665Z,32.1
2018-04-24T12:50:34.226Z,32.4
2018-04-24T12:51:24.352Z,31.6
2018-04-24T12:52:14.328Z,30.4
2018-04-24T12:53:04.399Z,29.8
2018-04-24T12:53:54.187Z,30.1
2018-04-24T12:54:44.539Z,30.4
2018-04-24T12:55:34.625Z,30.9
2018-04-24T12:56:24.387Z,31.1
2018-04-24T12:57:14.730Z,30.6
2018-04-24T12:58:04.778Z,30.1
2018-04-24T12:58:54.878Z,29.8
2018-04-24T12:59:44.652Z,29.9
2018-04-24T13:00:34.440Z,30.2
2018-04-24T13:01:25.058Z,30.4
2018-04-24T13:02:14.861Z,31.1
2018-04-24T13:03:04.530Z,31.8
2018-04-24T13:03:54.959Z,32.2
2018-04-24T13:04:45.196Z,32.4
2018-04-24T13:05:35.130Z,32.8
2018-04-24T13:06:25.165Z,32.6
2018-04-24T13:07:15.269Z,32.6
2018-04-24T13:08:05.069Z,32.6
2018-04-24T13:08:55.384Z,33
2018-04-24T13:09:46.117Z,33.3
2018-04-24T13:10:35.776Z,33.2
2018-04-24T13:11:25.589Z,33.3
2018-04-24T13:12:15.911Z,33.6
2018-04-24T13:13:05.989Z,33.4
2018-04-24T13:13:55.771Z,33.6
2018-04-24T13:14:45.365Z,33.4
2018-04-24T13:15:36.203Z,33.4
2018-04-24T13:16:25.497Z,33.3
2018-04-24T13:17:15.566Z,33.1
2018-04-24T13:18:06.122Z,33.1
2018-04-24T13:18:56.448Z,32.7
2018-04-24T13:19:46.236Z,32.9
2018-04-24T13:20:36.315Z,33
2018-04-24T13:21:26.383Z,32.4
2018-04-24T13:22:16.446Z,31.5
2018-04-24T13:23:06.240Z,30.9
2018-04-24T13:23:56.290Z,30.9
2018-04-24T13:24:46.650Z,31.4
2018-04-24T13:25:36.578Z,31.4
2018-04-24T13:26:26.778Z,31.8
2018-04-24T13:27:16.632Z,31.4
2018-04-24T13:28:07.173Z,32.1
2018-04-24T13:28:56.761Z,32.6
2018-04-24T13:29:46.748Z,32.6
2018-04-24T13:30:37.091Z,32.7
2018-04-24T13:31:27.431Z,32.7
2018-04-24T13:32:17.487Z,31.7
2018-04-24T13:33:07.299Z,31.1
2018-04-24T13:33:57.630Z,31.6
2018-04-24T13:34:47.416Z,31.3
2018-04-24T13:35:37.784Z,30.9
2018-04-24T13:36:27.539Z,30.4
2018-04-24T13:37:18.323Z,29.7
2018-04-24T13:38:07.696Z,29.6
2018-04-24T13:38:57.763Z,30.6
2018-04-24T13:39:47.550Z,31.4
2018-04-24T13:40:37.876Z,31.7
2018-04-24T13:41:28.223Z,32.2
2018-04-24T13:42:18.285Z,32.4
2018-04-24T13:43:08.232Z,32.7
2018-04-24T13:43:57.584Z,32
2018-04-24T13:44:48.230Z,31.7
2018-04-24T13:45:38.685Z,31
2018-04-24T13:46:28.337Z,30.8
2018-04-24T13:47:18.697Z,30.6
2018-04-24T13:48:08.731Z,30.1
2018-04-24T13:48:58.868Z,29.9
2018-04-24T13:49:48.874Z,29.9
2018-04-24T13:50:38.951Z,30.1
2018-04-24T13:51:29.023Z,30.1
2018-04-24T13:52:19.069Z,30.3
2018-04-24T13:53:08.885Z,30.6
2018-04-24T13:53:59.218Z,30.7
2018-04-24T13:54:49.300Z,31.1
2018-04-24T13:55:39.325Z,31.3
2018-04-24T13:56:29.116Z,30.9
2018-04-24T13:57:19.174Z,31.4
2018-04-24T13:58:09.284Z,31.2
2018-04-24T13:58:59.631Z,31.5
2018-04-24T13:59:49.656Z,31.8
2018-04-24T14:00:39.719Z,31
2018-04-24T14:01:29.813Z,30
2018-04-24T14:02:19.859Z,30.6
2018-04-24T14:03:09.935Z,30.6
2018-04-24T14:03:59.985Z,30.6
2018-04-24T14:04:50.065Z,30.8
2018-04-24T14:05:39.858Z,31.2
2018-04-24T14:06:30.474Z,30.8
2018-04-24T14:07:19.690Z,30.4
2018-04-24T14:08:09.782Z,30.2
2018-04-24T14:09:00.416Z,30.5
2018-04-24T14:09:49.902Z,30.5
2018-04-24T14:10:40.529Z,30.4
2018-04-24T14:11:30.587Z,30.6
2018-04-24T14:12:20.100Z,30.7
2018-04-24T14:13:10.716Z,31.1
2018-04-24T14:14:00.801Z,31.4
2018-04-24T14:14:50.570Z,31.1
2018-04-24T14:15:40.432Z,30.6
2018-04-24T14:16:31.061Z,30.4
2018-04-24T14:17:21.049Z,30.3
2018-04-24T14:18:10.831Z,30.3
2018-04-24T14:19:00.982Z,30.3
2018-04-24T14:19:51.243Z,29.7
2018-04-24T14:20:41.312Z,29.5
2018-04-24T14:21:31.684Z,29.4
2018-04-24T14:22:21.429Z,29.3
2018-04-24T14:23:11.230Z,29.3
2018-04-24T14:24:01.569Z,28.7
2018-04-24T14:24:51.630Z,28.3
2018-04-24T14:25:41.409Z,28.6
2018-04-24T14:26:31.284Z,28.9
2018-04-24T14:27:21.832Z,29.1
2018-04-24T14:28:11.901Z,29.3
2018-04-24T14:29:01.970Z,29.4
2018-04-24T14:29:51.732Z,29.6
2018-04-24T14:30:42.095Z,29.8
2018-04-24T14:31:31.888Z,30
2018-04-24T14:32:22.209Z,29.6
2018-04-24T14:33:12.289Z,29.5
2018-04-24T14:34:02.084Z,28.8
2018-04-24T14:34:52.428Z,28.9
2018-04-24T14:35:42.565Z,29.3
2018-04-24T14:36:32.607Z,29.6
2018-04-24T14:37:22.345Z,29.8
2018-04-24T14:38:12.683Z,29.3
2018-04-24T14:39:02.760Z,28.9
2018-04-24T14:39:52.523Z,28.9
2018-04-24T14:40:42.860Z,29
2018-04-24T14:41:32.934Z,29.3
2018-04-24T14:42:23.003Z,29.3
2018-04-24T14:43:12.815Z,29.2
2018-04-24T14:44:03.143Z,29.2
2018-04-24T14:44:52.916Z,29
2018-04-24T14:45:43.311Z,28.9
2018-04-24T14:46:33.326Z,29.1
2018-04-24T14:47:23.455Z,29.2
2018-04-24T14:48:13.195Z,29.2
2018-04-24T14:49:03.614Z,29.1
2018-04-24T14:49:53.127Z,29.2
2018-04-24T14:50:43.694Z,29.1
2018-04-24T14:51:33.867Z,28.8
2018-04-24T14:52:23.779Z,28.9
2018-04-24T14:53:13.878Z,28.9
2018-04-24T14:54:03.915Z,29.3
2018-04-24T14:54:54.013Z,29.1
2018-04-24T14:55:44.036Z,28.7
2018-04-24T14:56:34.123Z,28.7
2018-04-24T14:58:14.480Z,28.3
2018-04-24T14:59:03.742Z,28.2
2018-04-24T14:59:54.385Z,28.4
2018-04-24T15:00:43.879Z,28.6
2018-04-24T15:01:33.936Z,28.7
2018-04-24T15:02:24.297Z,28.6
2018-04-24T15:03:14.641Z,28.1
2018-04-24T15:04:04.694Z,27.9
2018-04-24T15:04:54.762Z,27.8
2018-04-24T15:05:44.545Z,27.7
2018-04-24T15:06:34.608Z,27.5
2018-04-24T15:07:24.417Z,27.7
2018-04-24T15:08:14.473Z,27.5
2018-04-24T15:09:04.527Z,27.3
2018-04-24T15:09:55.149Z,26.9
2018-04-24T15:10:44.960Z,26.8
2018-04-24T15:11:35.007Z,26.8
2018-04-24T15:12:25.051Z,26.9
2018-04-24T15:13:15.432Z,27.1
2018-04-24T15:14:05.537Z,27.5
2018-04-24T15:14:55.532Z,27.6
2018-04-24T15:15:45.609Z,27.7
2018-04-24T15:16:35.663Z,27.8
2018-04-24T15:17:25.738Z,27.7
2018-04-24T15:18:15.790Z,85
2018-04-24T15:19:05.670Z,28
2018-04-24T15:19:55.361Z,27.9
2018-04-24T15:21:36.058Z,27.8
2018-04-24T15:22:25.848Z,27.8
2018-04-24T15:23:15.951Z,27.8
2018-04-24T15:24:06.330Z,27.6
2018-04-24T15:24:55.739Z,27.4
2018-04-24T15:25:46.374Z,27.4
2018-04-24T15:26:35.983Z,27.4
2018-04-24T15:27:26.240Z,27.6
2018-04-24T15:28:17.093Z,27.4
2018-04-24T15:29:06.640Z,27.4
2018-04-24T15:29:56.417Z,27.2
2018-04-24T15:30:46.496Z,27.1
2018-04-24T15:31:36.827Z,27.2
2018-04-24T15:32:26.880Z,27.2
2018-04-24T15:33:16.684Z,27.3
2018-04-24T15:34:06.780Z,26.9
2018-04-24T15:34:57.177Z,26.8
2018-04-24T15:35:46.874Z,26.6
2018-04-24T15:36:37.207Z,26.6
2018-04-24T15:37:27.008Z,26.6
2018-04-24T15:38:17.345Z,26.6
2018-04-24T15:39:07.424Z,26.5
2018-04-24T15:39:57.195Z,26.6
2018-04-24T15:40:47.559Z,26.5
2018-04-24T15:41:37.619Z,26.5
2018-04-24T15:42:27.423Z,26.6
2018-04-24T15:43:17.728Z,26.6
2018-04-24T15:44:07.788Z,26.8
2018-04-24T15:44:57.863Z,26.9
2018-04-24T15:45:47.934Z,27.1
2018-04-24T15:46:37.999Z,27.2
2018-04-24T15:47:27.785Z,27.5
2018-04-24T15:48:18.118Z,27.8
2018-04-24T15:49:08.212Z,27.9
2018-04-24T15:49:58.269Z,27.4
2018-04-24T15:50:48.315Z,27.1
2018-04-24T15:51:38.101Z,26.9
2018-04-24T15:52:27.895Z,26.7
2018-04-24T15:53:18.260Z,26.5
2018-04-24T15:54:08.298Z,26.4
2018-04-24T15:54:58.624Z,26.5
2018-04-24T15:55:48.441Z,26.5
2018-04-24T15:56:38.501Z,26.5
2018-04-24T15:57:28.303Z,26.5
2018-04-24T15:58:18.898Z,26.6
2018-04-24T15:59:08.954Z,26.7
2018-04-24T15:59:59.070Z,26.7
2018-04-24T16:00:49.099Z,26.6
2018-04-24T16:01:38.937Z,26.6
2018-04-24T16:02:28.949Z,26.8
2018-04-24T16:03:18.461Z,26.9
2018-04-24T16:04:09.078Z,26.9
2018-04-24T16:04:59.446Z,26.9
2018-04-24T16:05:49.505Z,26.8
2018-04-24T16:06:39.622Z,26.8
2018-04-24T16:07:29.606Z,26.6
2018-04-24T16:08:19.662Z,26.6
2018-04-24T16:09:09.499Z,26.4
2018-04-24T16:09:59.801Z,26.3
2018-04-24T16:10:49.297Z,26.2
2018-04-24T16:11:39.942Z,26.1
2018-04-24T16:12:29.990Z,26.1
2018-04-24T16:13:19.809Z,25.9
2018-04-24T16:14:10.143Z,25.9
2018-04-24T16:15:00.199Z,25.8
2018-04-24T16:15:50.005Z,25.8
2018-04-24T16:16:40.340Z,25.8
2018-04-24T16:17:29.825Z,25.7
2018-04-24T16:18:20.443Z,25.6
2018-04-24T16:19:10.262Z,25.5
2018-04-24T16:20:00.586Z,25.4
2018-04-24T16:20:50.652Z,25.4
2018-04-24T16:21:40.435Z,25.4
2018-04-24T16:22:30.769Z,25.3
2018-04-24T16:23:20.598Z,25.2
2018-04-24T16:24:11.172Z,25.2
2018-04-24T16:25:00.670Z,25.1
2018-04-24T16:25:51.035Z,25.1
2018-04-24T16:26:41.102Z,24.9
2018-04-24T16:27:31.162Z,24.9
2018-04-24T16:28:21.235Z,24.9
2018-04-24T16:29:11.028Z,24.8
2018-04-24T16:30:01.758Z,24.8
2018-04-24T16:30:51.154Z,24.8
2018-04-24T16:31:41.259Z,24.8
2018-04-24T16:32:31.553Z,24.7
2018-04-24T16:33:21.351Z,24.6
2018-04-24T16:34:11.689Z,24.6
2018-04-24T16:35:01.475Z,24.6
2018-04-24T16:35:52.397Z,24.6
2018-04-24T16:36:41.603Z,24.6
2018-04-24T16:37:31.957Z,24.6
2018-04-24T16:38:21.749Z,24.6
2018-04-24T16:39:12.102Z,24.6
2018-04-24T16:40:02.129Z,24.5
2018-04-24T16:40:52.193Z,24.5
2018-04-24T16:41:42.262Z,24.4
2018-04-24T16:42:32.407Z,24.4
2018-04-24T16:43:21.545Z,24.4
2018-04-24T16:44:11.692Z,24.4
2018-04-24T16:45:02.554Z,24.4
2018-04-24T16:45:52.308Z,24.4
2018-04-24T16:46:42.647Z,24.4
2018-04-24T16:47:32.431Z,24.4
2018-04-24T16:48:22.790Z,24.3
2018-04-24T16:49:12.857Z,24.3
2018-04-24T16:50:02.955Z,24.3
2018-04-24T16:50:52.427Z,24.3
2018-04-24T16:51:43.045Z,24.2
2018-04-24T16:52:32.269Z,24.2
2018-04-24T16:53:22.900Z,24.2
2018-04-24T16:54:13.238Z,24.2
2018-04-24T16:55:03.021Z,24.1
2018-04-24T16:55:53.092Z,24
2018-04-24T16:56:43.446Z,23.8
2018-04-24T16:57:33.566Z,23.6
2018-04-24T16:58:23.560Z,23.6
2018-04-24T16:59:13.362Z,23.6
2018-04-24T17:00:03.684Z,23.5
2018-04-24T17:00:53.863Z,23.4
2018-04-24T17:01:43.527Z,22.9
2018-04-24T17:02:33.864Z,22.3
2018-04-24T17:03:23.941Z,20.9
2018-04-24T17:04:14.007Z,18.9
2018-04-24T17:05:04.061Z,18.6
2018-04-24T17:05:54.129Z,18.3
2018-04-24T17:06:44.281Z,18.6
2018-04-24T17:07:34.001Z,18.9
2018-04-24T17:08:24.062Z,19
2018-04-24T17:09:14.094Z,18.9
2018-04-24T17:10:04.549Z,19.1
2018-04-24T17:10:54.511Z,19.1
2018-04-24T17:11:44.029Z,19.1
2018-04-24T17:12:34.653Z,19.6
2018-04-24T17:13:24.710Z,19.6
2018-04-24T17:14:14.780Z,19.9
2018-04-24T17:15:04.820Z,20
2018-04-24T17:15:54.634Z,20
2018-04-24T17:16:44.683Z,19.8
2018-04-24T17:17:35.053Z,19.5
2018-04-24T17:18:25.077Z,19.3
2018-04-24T17:19:15.150Z,19
2018-04-24T17:20:04.956Z,18.8
2018-04-24T17:20:55.262Z,18.5
2018-04-24T17:21:45.061Z,18.3
2018-04-24T17:22:35.412Z,18.1
2018-04-24T17:23:25.466Z,18.3
2018-04-24T17:24:15.532Z,18.5
2018-04-24T17:25:05.614Z,18.4
2018-04-24T17:25:55.390Z,18.4
2018-04-24T17:26:45.730Z,18.6
2018-04-24T17:29:15.636Z,18.8
2018-04-24T17:30:05.717Z,18.8
2018-04-24T17:30:56.542Z,18.8
2018-04-24T17:31:46.109Z,18.8
2018-04-24T17:33:25.953Z,18.6
2018-04-24T17:34:15.835Z,18.6
2018-04-24T17:35:06.384Z,18.4
2018-04-24T17:35:56.152Z,18.3
2018-04-24T17:36:46.199Z,18.3
2018-04-24T17:37:36.291Z,18.3
2018-04-24T17:38:26.638Z,18.3
2018-04-24T17:39:16.683Z,18.4
2018-04-24T17:40:06.749Z,18.4
2018-04-24T17:42:36.935Z,18.6
2018-04-24T17:43:27.011Z,18.6
2018-04-24T17:44:16.498Z,18.6
2018-04-24T17:45:07.381Z,18.6
2018-04-24T17:46:47.285Z,18.8
2018-04-24T17:47:36.313Z,18.8
2018-04-24T17:48:27.390Z,18.8
2018-04-24T17:49:16.622Z,18.8
2018-04-24T17:50:07.252Z,18.9
2018-04-24T17:50:57.590Z,18.9
2018-04-24T17:51:47.390Z,18.9
2018-04-24T17:53:27.229Z,18.6
2018-04-24T17:55:07.620Z,18.8